createdAt,value
2023-02-13T00:01:11.116Z,97896.50
2023-02-13T00:03:39.465Z,97887.25
2023-02-13T00:06:08.498Z,97888.91
2023-02-13T00:08:37.096Z,97884.31
2023-02-13T00:11:07.195Z,97886.44
2023-02-13T00:13:35.590Z,97886.78
2023-02-13T00:16:04.914Z,97887.25
2023-02-13T00:18:35.441Z,97881.66
2023-02-13T00:21:05.203Z,97883.63
2023-02-13T00:23:33.917Z,97886.28
2023-02-13T00:26:02.712Z,97876.88
2023-02-13T00:28:32.416Z,97876.88
2023-02-13T00:31:06.243Z,97881.66
2023-02-13T00:33:34.668Z,97879.34
2023-02-13T00:36:08.051Z,97879.34
2023-02-13T00:38:36.387Z,97877.69
2023-02-13T00:41:04.789Z,97876.19
2023-02-13T00:43:34.449Z,97884.47
2023-02-13T00:46:03.997Z,97880.16
2023-02-13T00:48:33.726Z,97884.63
2023-02-13T00:51:02.136Z,97886.59
2023-02-13T00:53:31.897Z,97882.13
2023-02-13T00:56:00.119Z,97881.16
2023-02-13T00:58:28.577Z,97886.09
2023-02-13T01:00:58.539Z,97887.06
2023-02-13T01:03:27.364Z,97879.16
2023-02-13T01:05:56.743Z,97891.53
2023-02-13T01:08:25.740Z,97889.91
2023-02-13T01:10:54.020Z,97888.41
2023-02-13T01:13:22.307Z,97889.38
2023-02-13T01:15:50.846Z,97883.28
2023-02-13T01:18:21.184Z,97885.25
2023-02-13T01:20:58.550Z,97885.91
2023-02-13T01:23:27.197Z,97884.25
2023-02-13T01:25:55.457Z,97891.19
2023-02-13T01:28:23.810Z,97890.38
2023-02-13T01:30:55.855Z,97885.09
2023-02-13T01:33:27.491Z,97886.91
2023-02-13T01:35:55.746Z,97884.25
2023-02-13T01:38:24.049Z,97878.50
2023-02-13T01:40:53.391Z,97876.69
2023-02-13T01:43:23.627Z,97874.38
2023-02-13T01:45:53.117Z,97867.59
2023-02-13T01:48:22.528Z,97869.41
2023-02-13T01:50:55.255Z,97864.28
2023-02-13T01:53:27.448Z,97867.91
2023-02-13T01:55:56.891Z,97875.00
2023-02-13T01:58:26.639Z,97878.66
2023-02-13T02:00:55.199Z,97868.28
2023-02-13T02:03:25.855Z,97869.09
2023-02-13T02:05:55.575Z,97864.66
2023-02-13T02:08:24.737Z,97870.91
2023-02-13T02:10:56.612Z,97863.00
2023-02-13T02:13:25.726Z,97859.69
2023-02-13T02:15:55.391Z,97854.56
2023-02-13T02:18:24.540Z,97856.53
2023-02-13T02:21:20.785Z,97863.47
2023-02-13T02:24:04.802Z,97854.88
2023-02-13T02:26:52.767Z,97854.25
2023-02-13T02:29:50.648Z,97846.50
2023-02-13T02:32:25.986Z,97847.47
2023-02-13T02:34:57.834Z,97846.66
2023-02-13T02:37:34.446Z,97848.16
2023-02-13T02:40:08.914Z,97843.03
2023-02-13T02:42:41.089Z,97844.00
2023-02-13T02:45:11.069Z,97839.88
2023-02-13T02:48:01.275Z,97835.75
2023-02-13T02:50:35.790Z,97833.59
2023-02-13T02:53:09.647Z,97840.84
2023-02-13T02:55:43.899Z,97831.28
2023-02-13T02:58:34.819Z,97842.50
2023-02-13T03:01:21.217Z,97839.19
2023-02-13T03:04:10.105Z,97830.63
2023-02-13T03:06:42.053Z,97824.69
2023-02-13T03:09:29.652Z,97823.03
2023-02-13T03:12:15.350Z,97826.66
2023-02-13T03:14:44.435Z,97818.75
2023-02-13T03:17:30.663Z,97819.75
2023-02-13T03:20:32.498Z,97824.19
2023-02-13T03:23:07.844Z,97820.72
2023-02-13T03:25:38.378Z,97827.50
2023-02-13T03:28:29.488Z,97825.53
2023-02-13T03:31:04.661Z,97826.50
2023-02-13T03:33:41.984Z,97829.00
2023-02-13T03:36:49.637Z,97829.47
2023-02-13T03:39:21.109Z,97826.16
2023-02-13T03:41:51.911Z,97826.34
2023-02-13T03:44:22.284Z,97834.06
2023-02-13T03:46:51.686Z,97824.69
2023-02-13T03:49:38.995Z,97829.31
2023-02-13T03:52:10.538Z,97839.84
2023-02-13T03:54:58.573Z,97839.69
2023-02-13T03:57:44.397Z,97839.69
2023-02-13T04:00:14.549Z,97844.16
2023-02-13T04:02:49.830Z,97842.50
2023-02-13T04:05:19.863Z,97839.03
2023-02-13T04:07:49.711Z,97846.13
2023-02-13T04:10:18.617Z,97841.50
2023-02-13T04:12:52.197Z,97842.34
2023-02-13T04:15:22.340Z,97844.16
2023-02-13T04:17:52.842Z,97849.91
2023-02-13T04:20:21.670Z,97835.25
2023-02-13T04:22:51.373Z,97840.53
2023-02-13T04:25:19.727Z,97842.50
2023-02-13T04:27:48.274Z,97852.88
2023-02-13T04:30:16.812Z,97853.72
2023-02-13T04:32:45.114Z,97851.06
2023-02-13T04:35:14.815Z,97853.03
2023-02-13T04:37:43.050Z,97846.13
2023-02-13T04:40:13.345Z,97846.13
2023-02-13T04:42:52.093Z,97852.22
2023-02-13T04:45:20.304Z,97845.94
2023-02-13T04:47:51.647Z,97838.88
2023-02-13T04:50:20.101Z,97843.31
2023-02-13T04:52:48.411Z,97844.16
2023-02-13T04:55:19.475Z,97845.28
2023-02-13T04:57:48.387Z,97836.38
2023-02-13T05:00:17.175Z,97838.34
2023-02-13T05:02:45.477Z,97836.53
2023-02-13T05:05:13.748Z,97838.34
2023-02-13T05:07:42.720Z,97837.22
2023-02-13T05:10:11.773Z,97841.81
2023-02-13T05:12:41.451Z,97841.81
2023-02-13T05:15:11.212Z,97848.06
2023-02-13T05:17:39.548Z,97848.22
2023-02-13T05:20:08.973Z,97847.25
2023-02-13T05:22:55.257Z,97846.78
2023-02-13T05:25:23.637Z,97850.22
2023-02-13T05:27:53.299Z,97849.06
2023-02-13T05:30:21.791Z,97852.53
2023-02-13T05:32:50.900Z,97842.13
2023-02-13T05:35:19.309Z,97840.50
2023-02-13T05:37:48.216Z,97844.97
2023-02-13T05:40:16.845Z,97840.81
2023-02-13T05:42:45.217Z,97847.06
2023-02-13T05:45:16.205Z,97847.75
2023-02-13T05:47:44.569Z,97847.59
2023-02-13T05:50:13.254Z,97841.50
2023-02-13T05:52:41.764Z,97852.03
2023-02-13T05:55:10.005Z,97844.97
2023-02-13T05:57:38.286Z,97838.84
2023-02-13T06:00:07.911Z,97847.25
2023-02-13T06:02:37.584Z,97848.22
2023-02-13T06:05:06.885Z,97853.50
2023-02-13T06:07:35.414Z,97852.66
2023-02-13T06:10:03.971Z,97850.84
2023-02-13T06:12:32.204Z,97852.81
2023-02-13T06:15:00.515Z,97853.00
2023-02-13T06:17:28.995Z,97856.63
2023-02-13T06:19:58.681Z,97857.75
2023-02-13T06:22:27.003Z,97853.63
2023-02-13T06:24:55.273Z,97862.50
2023-02-13T06:27:23.688Z,97863.19
2023-02-13T06:29:51.961Z,97865.50
2023-02-13T06:32:20.518Z,97865.50
2023-02-13T06:34:48.826Z,97865.38
2023-02-13T06:37:18.750Z,97863.88
2023-02-13T06:39:47.020Z,97860.41
2023-02-13T06:42:15.222Z,97863.88
2023-02-13T06:44:43.765Z,97860.41
2023-02-13T06:47:11.917Z,97867.31
2023-02-13T06:49:40.126Z,97867.47
2023-02-13T06:52:11.159Z,97877.03
2023-02-13T06:54:47.593Z,97877.88
2023-02-13T06:57:16.871Z,97889.09
2023-02-13T06:59:45.870Z,97882.31
2023-02-13T07:02:14.948Z,97892.72
2023-02-13T07:04:43.302Z,97894.19
2023-02-13T07:07:11.585Z,97891.22
2023-02-13T07:09:42.489Z,97884.47
2023-02-13T07:12:11.477Z,97891.06
2023-02-13T07:14:40.202Z,97888.13
2023-02-13T07:17:08.865Z,97888.47
2023-02-13T07:19:37.522Z,97889.81
2023-02-13T07:22:05.805Z,97891.78
2023-02-13T07:24:35.497Z,97889.66
2023-02-13T07:27:06.316Z,97890.66
2023-02-13T07:29:36.024Z,97893.81
2023-02-13T07:32:05.388Z,97892.34
2023-02-13T07:34:34.441Z,97894.50
2023-02-13T07:37:03.107Z,97899.13
2023-02-13T07:39:33.023Z,97891.53
2023-02-13T07:42:01.293Z,97893.84
2023-02-13T07:44:31.629Z,97896.31
2023-02-13T07:47:01.252Z,97892.38
2023-02-13T07:49:29.491Z,97885.09
2023-02-13T07:51:59.317Z,97885.44
2023-02-13T07:54:27.900Z,97881.00
2023-02-13T07:56:59.558Z,97888.09
2023-02-13T07:59:27.911Z,97891.03
2023-02-13T08:01:57.803Z,97884.63
2023-02-13T08:04:26.545Z,97882.47
2023-02-13T08:06:54.794Z,97882.97
2023-02-13T08:09:41.098Z,97883.13
2023-02-13T08:12:09.934Z,97877.03
2023-02-13T08:14:38.224Z,97880.97
2023-02-13T08:17:08.465Z,97865.78
2023-02-13T08:19:37.256Z,97869.63
2023-02-13T08:22:05.849Z,97869.63
2023-02-13T08:24:34.395Z,97867.97
2023-02-13T08:27:03.040Z,97869.75
2023-02-13T08:29:31.616Z,97872.06
2023-02-13T08:32:00.838Z,97873.53
2023-02-13T08:34:30.937Z,97878.19
2023-02-13T08:36:59.522Z,97885.41
2023-02-13T08:39:28.122Z,97878.78
2023-02-13T08:41:56.521Z,97879.56
2023-02-13T08:44:25.086Z,97882.00
2023-02-13T08:46:53.885Z,97882.94
2023-02-13T08:49:23.522Z,97886.22
2023-02-13T08:51:53.217Z,97887.28
2023-02-13T08:54:21.533Z,97883.88
2023-02-13T08:56:50.333Z,97878.25
2023-02-13T08:59:19.107Z,97884.16
2023-02-13T09:01:47.939Z,97888.13
2023-02-13T09:04:18.262Z,97886.06
2023-02-13T09:06:46.931Z,97894.06
2023-02-13T09:09:17.803Z,97885.63
2023-02-13T09:11:46.884Z,97889.34
2023-02-13T09:14:15.228Z,97895.22
2023-02-13T09:16:43.979Z,97897.63
2023-02-13T09:19:12.277Z,97895.53
2023-02-13T09:21:40.890Z,97893.19
2023-02-13T09:24:10.231Z,97889.72
2023-02-13T09:26:39.954Z,97898.44
2023-02-13T09:29:08.244Z,97892.09
2023-02-13T09:31:36.702Z,97906.97
2023-02-13T09:34:05.078Z,97895.16
2023-02-13T09:36:34.567Z,97891.25
2023-02-13T09:39:03.499Z,97895.84
2023-02-13T09:41:33.803Z,97891.88
2023-02-13T09:45:03.814Z,97881.75
2023-02-13T09:47:34.367Z,97882.72
2023-02-13T09:50:05.496Z,97886.97
2023-02-13T09:52:34.711Z,97886.91
2023-02-13T09:55:03.246Z,97886.78
2023-02-13T09:57:34.645Z,97884.66
2023-02-13T10:00:12.149Z,97878.94
2023-02-13T10:02:51.480Z,97886.59
2023-02-13T10:05:25.519Z,97895.03
2023-02-13T10:07:58.617Z,97891.94
2023-02-13T10:10:30.549Z,97894.28
2023-02-13T10:13:04.895Z,97898.44
2023-02-13T10:15:37.213Z,97896.44
2023-02-13T10:18:08.385Z,97900.16
2023-02-13T10:20:38.863Z,97903.69
2023-02-13T10:23:14.127Z,97898.81
2023-02-13T10:25:45.816Z,97901.97
2023-02-13T10:28:16.239Z,97897.47
2023-02-13T10:30:48.365Z,97902.84
2023-02-13T10:33:20.149Z,97894.06
2023-02-13T10:35:51.637Z,97887.06
2023-02-13T10:38:21.195Z,97891.16
2023-02-13T10:41:00.332Z,97889.53
2023-02-13T10:43:29.598Z,97892.63
2023-02-13T10:46:02.556Z,97886.66
2023-02-13T10:48:50.036Z,97888.69
2023-02-13T10:51:20.763Z,97881.28
2023-02-13T10:53:55.040Z,97881.84
2023-02-13T10:56:28.426Z,97876.44
2023-02-13T10:59:19.053Z,97870.84
2023-02-13T11:01:50.899Z,97869.91
2023-02-13T11:04:20.933Z,97862.06
2023-02-13T11:06:55.610Z,97858.31
2023-02-13T11:09:23.910Z,97859.09
2023-02-13T11:11:52.883Z,97852.19
2023-02-13T11:14:22.443Z,97853.28
2023-02-13T11:17:00.700Z,97853.13
2023-02-13T11:19:34.432Z,97846.47
2023-02-13T11:22:04.841Z,97841.38
2023-02-13T11:24:33.135Z,97839.06
2023-02-13T11:27:04.635Z,97832.44
2023-02-13T11:29:34.744Z,97837.94
2023-02-13T11:32:20.714Z,97836.09
2023-02-13T11:34:51.938Z,97838.69
2023-02-13T11:37:28.779Z,97851.50
2023-02-13T11:39:58.106Z,97844.50
2023-02-13T11:42:29.478Z,97845.91
2023-02-13T11:45:00.438Z,97847.38
2023-02-13T11:47:34.340Z,97839.28
2023-02-13T11:50:04.848Z,97845.03
2023-02-13T11:52:34.332Z,97837.03
2023-02-13T11:55:07.940Z,97839.53
2023-02-13T11:57:36.776Z,97839.88
2023-02-13T12:00:31.373Z,97845.03
2023-02-13T12:02:59.747Z,97835.69
2023-02-13T12:05:29.824Z,97829.88
2023-02-13T12:08:01.378Z,97836.78
2023-02-13T12:10:30.272Z,97834.94
2023-02-13T12:12:59.958Z,97834.78
2023-02-13T12:15:30.012Z,97829.94
2023-02-13T12:18:11.813Z,97822.38
2023-02-13T12:20:46.556Z,97821.41
2023-02-13T12:23:23.305Z,97821.97
2023-02-13T12:26:00.713Z,97817.69
2023-02-13T12:28:33.726Z,97816.69
2023-02-13T12:31:45.856Z,97815.59
2023-02-13T12:34:34.691Z,97812.56
2023-02-13T12:37:13.723Z,97816.63
2023-02-13T12:39:43.306Z,97811.47
2023-02-13T12:42:21.790Z,97810.97
2023-02-13T12:44:55.275Z,97802.59
2023-02-13T12:47:25.065Z,97801.31
2023-02-13T12:50:20.629Z,97801.72
2023-02-13T12:52:56.465Z,97799.88
2023-02-13T12:55:35.099Z,97798.53
2023-02-13T12:58:10.614Z,97799.59
2023-02-13T13:00:45.086Z,97798.09
2023-02-13T13:03:38.272Z,97796.84
2023-02-13T13:06:15.629Z,97797.88
2023-02-13T13:08:54.279Z,97789.91
2023-02-13T13:11:33.344Z,97785.84
2023-02-13T13:14:05.337Z,97787.69
2023-02-13T13:16:43.068Z,97781.78
2023-02-13T13:19:15.746Z,97783.22
2023-02-13T13:21:47.594Z,97786.69
2023-02-13T13:24:25.549Z,97784.66
2023-02-13T13:26:57.360Z,97786.47
2023-02-13T13:29:31.202Z,97782.97
2023-02-13T13:32:02.705Z,97787.72
2023-02-13T13:34:30.962Z,97792.03
2023-02-13T13:37:02.072Z,97786.91
2023-02-13T13:39:43.270Z,97791.63
2023-02-13T13:42:14.882Z,97787.53
2023-02-13T13:44:57.034Z,97793.66
2023-02-13T13:47:28.891Z,97794.47
2023-02-13T13:49:57.672Z,97792.44
2023-02-13T13:52:28.012Z,97792.84
2023-02-13T13:55:00.331Z,97788.31
2023-02-13T13:57:28.569Z,97789.34
2023-02-13T14:00:27.323Z,97781.75
2023-02-13T14:03:23.056Z,97779.50
2023-02-13T14:06:10.138Z,97771.31
2023-02-13T14:09:07.387Z,97779.31
2023-02-13T14:11:41.859Z,97776.22
2023-02-13T14:14:52.676Z,97782.16
2023-02-13T14:17:52.725Z,97772.94
2023-02-13T14:20:40.501Z,97774.59
2023-02-13T14:23:17.013Z,97773.16
2023-02-13T14:25:45.292Z,97773.56
2023-02-13T14:28:23.036Z,97777.25
2023-02-13T14:30:52.760Z,97774.16
2023-02-13T14:33:28.094Z,97781.06
2023-02-13T14:36:04.465Z,97778.78
2023-02-13T14:38:32.978Z,97784.03
2023-02-13T14:41:01.610Z,97772.13
2023-02-13T14:43:51.757Z,97765.50
2023-02-13T14:46:24.889Z,97776.41
2023-02-13T14:48:56.677Z,97774.31
2023-02-13T14:51:29.803Z,97770.13
2023-02-13T14:54:01.389Z,97767.56
2023-02-13T14:56:30.753Z,97768.66
2023-02-13T14:59:06.969Z,97760.16
2023-02-13T15:01:36.196Z,97761.84
2023-02-13T15:04:08.658Z,97759.06
2023-02-13T15:06:39.124Z,97757.75
2023-02-13T15:09:21.237Z,97759.44
2023-02-13T15:11:49.655Z,97749.53
2023-02-13T15:14:27.370Z,97754.31
2023-02-13T15:16:57.400Z,97750.31
2023-02-13T15:19:26.327Z,97756.25
2023-02-13T15:21:56.581Z,97749.25
2023-02-13T15:24:24.908Z,97743.66
2023-02-13T15:27:03.887Z,97752.72
2023-02-13T15:29:47.868Z,97757.94
2023-02-13T15:32:21.473Z,97758.06
2023-02-13T15:34:50.640Z,97759.31
2023-02-13T15:37:22.868Z,97766.53
2023-02-13T15:39:51.616Z,97763.00
2023-02-13T15:42:20.483Z,97755.56
2023-02-13T15:44:51.549Z,97755.31
2023-02-13T15:47:22.574Z,97749.88
2023-02-13T15:49:51.295Z,97740.56
2023-02-13T15:52:21.838Z,97742.47
2023-02-13T15:54:50.624Z,97741.38
2023-02-13T15:57:19.867Z,97746.19
2023-02-13T15:59:48.395Z,97747.91
2023-02-13T16:02:19.764Z,97746.00
2023-02-13T16:04:48.302Z,97749.16
2023-02-13T16:07:16.561Z,97748.06
2023-02-13T16:09:45.182Z,97738.97
2023-02-13T16:12:22.956Z,97744.00
2023-02-13T16:14:54.009Z,97744.06
2023-02-13T16:17:29.427Z,97743.75
2023-02-13T16:20:00.613Z,97737.00
2023-02-13T16:22:34.657Z,97741.16
2023-02-13T16:25:17.429Z,97743.72
2023-02-13T16:27:46.548Z,97738.94
2023-02-13T16:30:41.247Z,97733.03
2023-02-13T16:33:24.348Z,97731.28
2023-02-13T16:35:55.452Z,97732.59
2023-02-13T16:38:29.354Z,97736.94
2023-02-13T16:40:58.515Z,97737.50
2023-02-13T16:43:54.327Z,97738.03
2023-02-13T16:46:26.430Z,97742.72
2023-02-13T16:49:27.071Z,97737.78
2023-02-13T16:52:00.668Z,97735.84
2023-02-13T16:54:35.441Z,97742.16
2023-02-13T16:57:05.503Z,97749.91
2023-02-13T16:59:37.333Z,97752.25
2023-02-13T17:02:19.520Z,97752.28
2023-02-13T17:04:50.994Z,97756.91
2023-02-13T17:07:24.495Z,97762.53
2023-02-13T17:10:01.121Z,97767.97
2023-02-13T17:12:30.445Z,97773.59
2023-02-13T17:14:59.755Z,97764.69
2023-02-13T17:17:28.657Z,97762.72
2023-02-13T17:19:58.878Z,97774.44
2023-02-13T17:22:33.743Z,97756.47
2023-02-13T17:25:02.550Z,97762.22
2023-02-13T17:27:31.141Z,97760.94
2023-02-13T17:29:59.949Z,97752.50
2023-02-13T17:32:29.624Z,97750.19
2023-02-13T17:34:59.581Z,97755.97
2023-02-13T17:37:29.128Z,97763.72
2023-02-13T17:39:57.467Z,97772.47
2023-02-13T17:42:26.288Z,97773.78
2023-02-13T17:44:54.848Z,97772.59
2023-02-13T17:47:23.599Z,97777.53
2023-02-13T17:49:55.166Z,97776.88
2023-02-13T17:52:28.717Z,97777.03
2023-02-13T17:54:57.137Z,97779.19
2023-02-13T17:57:25.739Z,97783.97
2023-02-13T17:59:53.960Z,97782.28
2023-02-13T18:02:23.477Z,97776.03
2023-02-13T18:04:51.748Z,97771.22
2023-02-13T18:07:21.281Z,97774.00
2023-02-13T18:09:51.159Z,97773.38
2023-02-13T18:12:21.361Z,97777.00
2023-02-13T18:14:50.817Z,97774.00
2023-02-13T18:17:19.149Z,97775.16
2023-02-13T18:19:55.816Z,97775.16
2023-02-13T18:22:24.460Z,97771.53
2023-02-13T18:24:54.295Z,97769.22
2023-02-13T18:27:23.250Z,97764.75
2023-02-13T18:29:51.550Z,97761.31
2023-02-13T18:32:19.840Z,97767.22
2023-02-13T18:34:48.616Z,97762.94
2023-02-13T18:37:17.187Z,97760.34
2023-02-13T18:39:46.031Z,97759.00
2023-02-13T18:42:16.920Z,97764.78
2023-02-13T18:44:45.699Z,97771.84
2023-02-13T18:47:14.020Z,97765.38
2023-02-13T18:49:42.654Z,97767.53
2023-02-13T18:52:11.315Z,97771.78
2023-02-13T18:54:40.277Z,97765.53
2023-02-13T18:57:08.655Z,97768.31
2023-02-13T18:59:39.008Z,97771.09
2023-02-13T19:02:07.637Z,97763.19
2023-02-13T19:04:36.650Z,97762.41
2023-02-13T19:07:05.311Z,97771.28
2023-02-13T19:09:35.535Z,97756.75
2023-02-13T19:12:04.217Z,97753.13
2023-02-13T19:14:32.814Z,97747.38
2023-02-13T19:17:02.720Z,97752.53
2023-02-13T19:19:31.623Z,97760.44
2023-02-13T19:22:00.552Z,97762.41
2023-02-13T19:24:29.112Z,97759.94
2023-02-13T19:26:57.822Z,97761.56
2023-02-13T19:29:26.420Z,97763.84
2023-02-13T19:31:54.677Z,97766.97
2023-02-13T19:34:25.542Z,97754.94
2023-02-13T19:36:54.408Z,97762.34
2023-02-13T19:39:23.029Z,97759.88
2023-02-13T19:41:51.576Z,97762.69
2023-02-13T19:44:20.101Z,97759.84
2023-02-13T19:46:49.384Z,97755.88
2023-02-13T19:49:19.253Z,97752.41
2023-02-13T19:51:49.284Z,97746.31
2023-02-13T19:54:17.581Z,97755.88
2023-02-13T19:56:47.592Z,97756.56
2023-02-13T19:59:15.915Z,97744.22
2023-02-13T20:01:45.745Z,97735.94
2023-02-13T20:04:14.985Z,97737.22
2023-02-13T20:06:43.599Z,97739.53
2023-02-13T20:09:14.346Z,97742.16
2023-02-13T20:11:43.046Z,97732.91
2023-02-13T20:14:14.961Z,97744.59
2023-02-13T20:16:45.680Z,97751.00
2023-02-13T20:19:14.445Z,97743.94
2023-02-13T20:21:43.437Z,97741.16
2023-02-13T20:24:13.350Z,97746.56
2023-02-13T20:26:41.768Z,97744.91
2023-02-13T20:29:10.951Z,97740.47
2023-02-13T20:31:41.593Z,97743.78
2023-02-13T20:34:10.407Z,97742.94
2023-02-13T20:36:38.709Z,97744.75
2023-02-13T20:39:07.828Z,97746.53
2023-02-13T20:41:38.317Z,97736.59
2023-02-13T20:44:08.154Z,97742.53
2023-02-13T20:46:37.673Z,97735.78
2023-02-13T20:49:06.088Z,97731.53
2023-02-13T20:51:34.545Z,97742.06
2023-02-13T20:54:02.776Z,97740.91
2023-02-13T20:56:31.653Z,97735.13
2023-02-13T20:59:02.615Z,97736.78
2023-02-13T21:01:32.412Z,97734.81
2023-02-13T21:04:01.198Z,97738.91
2023-02-13T21:06:31.280Z,97733.63
2023-02-13T21:08:59.715Z,97734.75
2023-02-13T21:11:29.468Z,97737.41
2023-02-13T21:13:58.177Z,97748.25
2023-02-13T21:16:28.754Z,97744.94
2023-02-13T21:18:58.012Z,97739.00
2023-02-13T21:21:27.227Z,97733.75
2023-02-13T21:23:55.639Z,97734.28
2023-02-13T21:26:24.680Z,97734.28
2023-02-13T21:28:53.266Z,97735.69
2023-02-13T21:31:23.848Z,97743.75
2023-02-13T21:33:54.113Z,97744.66
2023-02-13T21:36:22.578Z,97738.91
2023-02-13T21:38:51.795Z,97733.81
2023-02-13T21:41:20.518Z,97733.13
2023-02-13T21:43:50.010Z,97743.63
2023-02-13T21:46:19.783Z,97739.66
2023-02-13T21:48:48.571Z,97742.13
2023-02-13T21:51:20.412Z,97752.16
2023-02-13T21:53:51.712Z,97756.22
2023-02-13T21:56:21.322Z,97745.34
2023-02-13T21:58:49.685Z,97745.34
2023-02-13T22:01:26.109Z,97751.72
2023-02-13T22:03:55.012Z,97751.88
2023-02-13T22:06:25.298Z,97750.69
2023-02-13T22:08:57.664Z,97750.69
2023-02-13T22:11:26.132Z,97747.91
2023-02-13T22:13:56.537Z,97749.53
2023-02-13T22:16:25.215Z,97756.00
2023-02-13T22:18:53.633Z,97765.53
2023-02-13T22:21:25.184Z,97759.06
2023-02-13T22:23:54.011Z,97766.75
2023-02-13T22:26:23.304Z,97759.34
2023-02-13T22:28:52.217Z,97746.84
2023-02-13T22:31:22.361Z,97749.19
2023-02-13T22:34:03.064Z,97752.78
2023-02-13T22:36:34.081Z,97749.19
2023-02-13T22:39:02.547Z,97750.16
2023-02-13T22:41:31.674Z,97748.81
2023-02-13T22:44:00.856Z,97741.66
2023-02-13T22:46:30.682Z,97745.28
2023-02-13T22:48:59.084Z,97744.28
2023-02-13T22:51:28.865Z,97745.75
2023-02-13T22:53:59.328Z,97749.47
2023-02-13T22:56:28.052Z,97748.50
2023-02-13T22:58:56.330Z,97749.78
2023-02-13T23:01:26.143Z,97750.09
2023-02-13T23:03:54.504Z,97764.34
2023-02-13T23:06:22.987Z,97754.00
2023-02-13T23:08:53.626Z,97754.13
2023-02-13T23:11:42.037Z,97762.19
2023-02-13T23:14:11.055Z,97764.81
2023-02-13T23:16:53.155Z,97760.38
2023-02-13T23:19:21.872Z,97761.38
2023-02-13T23:21:50.324Z,97757.91
2023-02-13T23:24:19.022Z,97771.69
2023-02-13T23:26:48.757Z,97769.75
2023-02-13T23:29:17.682Z,97770.44
2023-02-13T23:31:46.640Z,97780.25
2023-02-13T23:34:15.020Z,97771.03
2023-02-13T23:36:43.312Z,97781.84
2023-02-13T23:39:11.703Z,97785.91
2023-02-13T23:41:40.394Z,97785.50
2023-02-13T23:44:10.731Z,97784.81
2023-02-13T23:46:39.284Z,97791.31
2023-02-13T23:49:07.981Z,97782.44
2023-02-13T23:51:36.698Z,97775.91
2023-02-13T23:54:05.767Z,97791.38
2023-02-13T23:56:34.527Z,97782.81
2023-02-13T23:59:03.868Z,97786.03
